sensor_id;sensor_type;location;lat;lon;timestamp;P1;durP1;ratioP1;P2;durP2;ratioP2
60239;SDS011;46102;39.012;-7.064;2022-09-09T00:00:16;2.05;;;1.33;;
60239;SDS011;46102;39.012;-7.064;2022-09-09T00:02:18;1.73;;;1.60;;
60239;SDS011;46102;39.012;-7.064;2022-09-09T00:06:27;6.55;;;1.63;;
60239;SDS011;46102;39.012;-7.064;2022-09-09T00:08:35;3.35;;;1.20;;
60239;SDS011;46102;39.012;-7.064;2022-09-09T00:10:43;4.43;;;1.25;;
60239;SDS011;46102;39.012;-7.064;2022-09-09T00:15:05;2.58;;;1.55;;
60239;SDS011;46102;39.012;-7.064;2022-09-09T00:17:14;3.40;;;1.55;;
60239;SDS011;46102;39.012;-7.064;2022-09-09T00:19:44;2.85;;;1.50;;
60239;SDS011;46102;39.012;-7.064;2022-09-09T00:24:08;3.63;;;1.15;;
60239;SDS011;46102;39.012;-7.064;2022-09-09T00:28:33;1.40;;;1.10;;
60239;SDS011;46102;39.012;-7.064;2022-09-09T00:30:39;1.83;;;1.10;;
60239;SDS011;46102;39.012;-7.064;2022-09-09T00:32:41;5.28;;;1.90;;
60239;SDS011;46102;39.012;-7.064;2022-09-09T00:34:47;4.78;;;2.28;;
60239;SDS011;46102;39.012;-7.064;2022-09-09T00:36:52;2.58;;;1.08;;
60239;SDS011;46102;39.012;-7.064;2022-09-09T00:38:59;10.63;;;1.15;;
60239;SDS011;46102;39.012;-7.064;2022-09-09T00:52:12;2.65;;;1.40;;
60239;SDS011;46102;39.012;-7.064;2022-09-09T00:56:46;3.55;;;1.80;;
60239;SDS011;46102;39.012;-7.064;2022-09-09T01:01:11;3.80;;;1.63;;
60239;SDS011;46102;39.012;-7.064;2022-09-09T01:05:27;4.05;;;1.30;;
60239;SDS011;46102;39.012;-7.064;2022-09-09T01:07:35;1.85;;;1.27;;
60239;SDS011;46102;39.012;-7.064;2022-09-09T01:09:45;4.85;;;1.63;;
60239;SDS011;46102;39.012;-7.064;2022-09-09T01:11:55;4.65;;;1.50;;
60239;SDS011;46102;39.012;-7.064;2022-09-09T01:14:05;3.60;;;1.40;;
60239;SDS011;46102;39.012;-7.064;2022-09-09T01:16:17;5.70;;;1.27;;
60239;SDS011;46102;39.012;-7.064;2022-09-09T01:18:19;6.68;;;2.08;;
60239;SDS011;46102;39.012;-7.064;2022-09-09T01:20:25;2.88;;;1.75;;
60239;SDS011;46102;39.012;-7.064;2022-09-09T01:24:48;2.97;;;1.58;;
60239;SDS011;46102;39.012;-7.064;2022-09-09T01:27:14;3.20;;;1.70;;
60239;SDS011;46102;39.012;-7.064;2022-09-09T01:29:18;3.75;;;2.95;;
60239;SDS011;46102;39.012;-7.064;2022-09-09T01:31:37;10.63;;;3.10;;
60239;SDS011;46102;39.012;-7.064;2022-09-09T01:33:41;6.18;;;3.17;;
60239;SDS011;46102;39.012;-7.064;2022-09-09T01:37:55;11.38;;;3.55;;
60239;SDS011;46102;39.012;-7.064;2022-09-09T01:39:57;7.82;;;4.38;;
60239;SDS011;46102;39.012;-7.064;2022-09-09T01:41:58;10.65;;;5.05;;
60239;SDS011;46102;39.012;-7.064;2022-09-09T01:44:00;7.90;;;4.15;;
60239;SDS011;46102;39.012;-7.064;2022-09-09T01:46:04;8.07;;;5.18;;
60239;SDS011;46102;39.012;-7.064;2022-09-09T01:48:08;8.05;;;5.03;;
60239;SDS011;46102;39.012;-7.064;2022-09-09T01:50:20;9.55;;;5.97;;
60239;SDS011;46102;39.012;-7.064;2022-09-09T01:52:21;11.85;;;6.25;;
60239;SDS011;46102;39.012;-7.064;2022-09-09T01:54:23;11.95;;;6.45;;
60239;SDS011;46102;39.012;-7.064;2022-09-09T02:00:51;14.30;;;7.15;;
60239;SDS011;46102;39.012;-7.064;2022-09-09T02:03:17;12.60;;;7.45;;
60239;SDS011;46102;39.012;-7.064;2022-09-09T02:05:36;9.50;;;6.82;;
60239;SDS011;46102;39.012;-7.064;2022-09-09T02:07:47;9.23;;;6.78;;
60239;SDS011;46102;39.012;-7.064;2022-09-09T02:10:05;17.23;;;6.68;;
60239;SDS011;46102;39.012;-7.064;2022-09-09T02:12:23;13.90;;;6.55;;
60239;SDS011;46102;39.012;-7.064;2022-09-09T02:14:30;9.15;;;5.47;;
60239;SDS011;46102;39.012;-7.064;2022-09-09T02:16:42;10.48;;;5.72;;
60239;SDS011;46102;39.012;-7.064;2022-09-09T02:20:56;7.90;;;5.82;;
60239;SDS011;46102;39.012;-7.064;2022-09-09T02:23:00;11.48;;;4.95;;
60239;SDS011;46102;39.012;-7.064;2022-09-09T02:25:03;8.23;;;5.03;;
60239;SDS011;46102;39.012;-7.064;2022-09-09T02:27:08;6.38;;;5.00;;
60239;SDS011;46102;39.012;-7.064;2022-09-09T02:29:13;6.78;;;5.15;;
60239;SDS011;46102;39.012;-7.064;2022-09-09T02:31:17;6.78;;;4.68;;
60239;SDS011;46102;39.012;-7.064;2022-09-09T02:33:24;7.30;;;4.95;;
60239;SDS011;46102;39.012;-7.064;2022-09-09T02:35:29;6.53;;;4.93;;
60239;SDS011;46102;39.012;-7.064;2022-09-09T02:37:34;7.30;;;4.05;;
60239;SDS011;46102;39.012;-7.064;2022-09-09T02:39:37;9.90;;;4.68;;
60239;SDS011;46102;39.012;-7.064;2022-09-09T02:41:41;5.57;;;4.93;;
60239;SDS011;46102;39.012;-7.064;2022-09-09T02:43:42;6.65;;;4.03;;
60239;SDS011;46102;39.012;-7.064;2022-09-09T02:45:53;5.07;;;3.88;;
60239;SDS011;46102;39.012;-7.064;2022-09-09T02:48:17;3.97;;;3.58;;
60239;SDS011;46102;39.012;-7.064;2022-09-09T02:50:33;5.32;;;4.00;;
60239;SDS011;46102;39.012;-7.064;2022-09-09T02:54:40;7.63;;;3.95;;
60239;SDS011;46102;39.012;-7.064;2022-09-09T02:56:49;5.20;;;3.53;;
60239;SDS011;46102;39.012;-7.064;2022-09-09T02:58:58;6.05;;;3.85;;
60239;SDS011;46102;39.012;-7.064;2022-09-09T03:01:00;15.15;;;4.05;;
60239;SDS011;46102;39.012;-7.064;2022-09-09T03:05:07;9.82;;;3.80;;
60239;SDS011;46102;39.012;-7.064;2022-09-09T03:07:08;5.40;;;3.65;;
60239;SDS011;46102;39.012;-7.064;2022-09-09T03:09:09;6.45;;;4.57;;
60239;SDS011;46102;39.012;-7.064;2022-09-09T03:11:11;6.43;;;3.25;;
60239;SDS011;46102;39.012;-7.064;2022-09-09T03:13:12;6.15;;;3.15;;
60239;SDS011;46102;39.012;-7.064;2022-09-09T03:15:16;7.88;;;3.42;;
60239;SDS011;46102;39.012;-7.064;2022-09-09T03:17:17;3.58;;;2.97;;
60239;SDS011;46102;39.012;-7.064;2022-09-09T03:19:26;7.03;;;3.45;;
60239;SDS011;46102;39.012;-7.064;2022-09-09T03:21:27;5.32;;;3.13;;
60239;SDS011;46102;39.012;-7.064;2022-09-09T03:23:29;7.53;;;3.65;;
60239;SDS011;46102;39.012;-7.064;2022-09-09T03:25:31;6.07;;;3.00;;
60239;SDS011;46102;39.012;-7.064;2022-09-09T03:27:34;2.92;;;2.72;;
60239;SDS011;46102;39.012;-7.064;2022-09-09T03:29:36;8.48;;;2.97;;
60239;SDS011;46102;39.012;-7.064;2022-09-09T03:31:40;6.88;;;3.47;;
60239;SDS011;46102;39.012;-7.064;2022-09-09T03:33:42;7.15;;;3.75;;
60239;SDS011;46102;39.012;-7.064;2022-09-09T03:35:46;3.97;;;3.20;;
60239;SDS011;46102;39.012;-7.064;2022-09-09T03:37:53;11.45;;;3.97;;
60239;SDS011;46102;39.012;-7.064;2022-09-09T03:39:55;6.30;;;3.28;;
60239;SDS011;46102;39.012;-7.064;2022-09-09T03:41:57;4.95;;;3.85;;
60239;SDS011;46102;39.012;-7.064;2022-09-09T03:43:58;4.47;;;3.58;;
60239;SDS011;46102;39.012;-7.064;2022-09-09T03:46:00;4.90;;;3.08;;
60239;SDS011;46102;39.012;-7.064;2022-09-09T03:48:03;3.53;;;3.22;;
60239;SDS011;46102;39.012;-7.064;2022-09-09T03:50:05;5.82;;;3.53;;
60239;SDS011;46102;39.012;-7.064;2022-09-09T03:52:10;6.15;;;3.75;;
60239;SDS011;46102;39.012;-7.064;2022-09-09T03:54:12;6.00;;;3.33;;
60239;SDS011;46102;39.012;-7.064;2022-09-09T03:56:13;4.57;;;3.22;;
60239;SDS011;46102;39.012;-7.064;2022-09-09T03:58:14;11.57;;;3.67;;
60239;SDS011;46102;39.012;-7.064;2022-09-09T04:00:16;11.38;;;3.85;;
60239;SDS011;46102;39.012;-7.064;2022-09-09T04:02:19;5.00;;;3.05;;
60239;SDS011;46102;39.012;-7.064;2022-09-09T04:04:19;4.88;;;2.90;;
60239;SDS011;46102;39.012;-7.064;2022-09-09T04:06:20;7.95;;;3.03;;
60239;SDS011;46102;39.012;-7.064;2022-09-09T04:08:22;4.10;;;3.22;;
60239;SDS011;46102;39.012;-7.064;2022-09-09T04:10:25;5.57;;;3.30;;
60239;SDS011;46102;39.012;-7.064;2022-09-09T04:12:28;6.15;;;2.92;;
60239;SDS011;46102;39.012;-7.064;2022-09-09T04:14:29;5.03;;;3.42;;
60239;SDS011;46102;39.012;-7.064;2022-09-09T04:16:32;5.65;;;3.33;;
60239;SDS011;46102;39.012;-7.064;2022-09-09T04:18:33;6.07;;;3.50;;
60239;SDS011;46102;39.012;-7.064;2022-09-09T04:20:35;5.00;;;3.40;;
60239;SDS011;46102;39.012;-7.064;2022-09-09T04:22:36;6.10;;;3.13;;
60239;SDS011;46102;39.012;-7.064;2022-09-09T04:24:39;7.57;;;3.05;;
60239;SDS011;46102;39.012;-7.064;2022-09-09T04:26:40;4.72;;;2.88;;
60239;SDS011;46102;39.012;-7.064;2022-09-09T04:28:42;6.07;;;3.28;;
60239;SDS011;46102;39.012;-7.064;2022-09-09T04:30:50;10.60;;;2.90;;
60239;SDS011;46102;39.012;-7.064;2022-09-09T04:32:50;7.25;;;3.22;;
60239;SDS011;46102;39.012;-7.064;2022-09-09T04:34:51;10.55;;;3.92;;
60239;SDS011;46102;39.012;-7.064;2022-09-09T04:36:52;5.22;;;3.53;;
60239;SDS011;46102;39.012;-7.064;2022-09-09T04:38:53;6.80;;;3.45;;
60239;SDS011;46102;39.012;-7.064;2022-09-09T04:40:54;5.38;;;2.80;;
60239;SDS011;46102;39.012;-7.064;2022-09-09T04:42:57;5.10;;;3.40;;
60239;SDS011;46102;39.012;-7.064;2022-09-09T04:44:59;12.15;;;3.67;;
60239;SDS011;46102;39.012;-7.064;2022-09-09T04:47:01;5.40;;;3.78;;
60239;SDS011;46102;39.012;-7.064;2022-09-09T04:49:02;9.63;;;3.75;;
60239;SDS011;46102;39.012;-7.064;2022-09-09T04:51:06;6.22;;;3.40;;
60239;SDS011;46102;39.012;-7.064;2022-09-09T04:53:10;4.72;;;3.42;;
60239;SDS011;46102;39.012;-7.064;2022-09-09T04:55:12;6.13;;;3.70;;
60239;SDS011;46102;39.012;-7.064;2022-09-09T04:57:15;3.92;;;3.63;;
60239;SDS011;46102;39.012;-7.064;2022-09-09T04:59:16;4.68;;;3.95;;
60239;SDS011;46102;39.012;-7.064;2022-09-09T05:01:23;12.35;;;5.35;;
60239;SDS011;46102;39.012;-7.064;2022-09-09T05:03:26;4.47;;;3.67;;
60239;SDS011;46102;39.012;-7.064;2022-09-09T05:05:26;6.75;;;4.05;;
60239;SDS011;46102;39.012;-7.064;2022-09-09T05:07:29;11.15;;;4.40;;
60239;SDS011;46102;39.012;-7.064;2022-09-09T05:09:31;4.75;;;4.30;;
60239;SDS011;46102;39.012;-7.064;2022-09-09T05:11:33;4.18;;;3.78;;
60239;SDS011;46102;39.012;-7.064;2022-09-09T05:13:50;9.32;;;4.82;;
60239;SDS011;46102;39.012;-7.064;2022-09-09T05:15:53;7.32;;;4.68;;
60239;SDS011;46102;39.012;-7.064;2022-09-09T05:17:59;7.97;;;4.78;;
60239;SDS011;46102;39.012;-7.064;2022-09-09T05:20:02;7.22;;;4.68;;
60239;SDS011;46102;39.012;-7.064;2022-09-09T05:22:05;6.90;;;4.45;;
60239;SDS011;46102;39.012;-7.064;2022-09-09T05:24:13;7.38;;;4.90;;
60239;SDS011;46102;39.012;-7.064;2022-09-09T05:26:16;6.18;;;5.13;;
60239;SDS011;46102;39.012;-7.064;2022-09-09T05:28:19;8.00;;;5.18;;
60239;SDS011;46102;39.012;-7.064;2022-09-09T05:30:21;8.23;;;5.22;;
60239;SDS011;46102;39.012;-7.064;2022-09-09T05:32:25;8.60;;;5.60;;
60239;SDS011;46102;39.012;-7.064;2022-09-09T05:34:26;8.30;;;5.18;;
60239;SDS011;46102;39.012;-7.064;2022-09-09T05:36:27;13.63;;;6.30;;
60239;SDS011;46102;39.012;-7.064;2022-09-09T05:38:30;8.48;;;4.18;;
60239;SDS011;46102;39.012;-7.064;2022-09-09T05:40:33;15.88;;;5.30;;
60239;SDS011;46102;39.012;-7.064;2022-09-09T05:42:35;10.70;;;4.78;;
60239;SDS011;46102;39.012;-7.064;2022-09-09T05:44:36;10.93;;;5.35;;
60239;SDS011;46102;39.012;-7.064;2022-09-09T05:46:37;5.43;;;4.88;;
60239;SDS011;46102;39.012;-7.064;2022-09-09T05:48:39;9.93;;;4.43;;
60239;SDS011;46102;39.012;-7.064;2022-09-09T05:50:42;9.35;;;4.70;;
60239;SDS011;46102;39.012;-7.064;2022-09-09T05:52:44;9.88;;;5.13;;
60239;SDS011;46102;39.012;-7.064;2022-09-09T05:54:45;11.40;;;4.53;;
60239;SDS011;46102;39.012;-7.064;2022-09-09T05:56:46;9.52;;;5.30;;
60239;SDS011;46102;39.012;-7.064;2022-09-09T05:58:46;6.95;;;4.80;;
60239;SDS011;46102;39.012;-7.064;2022-09-09T06:00:48;14.05;;;4.13;;
60239;SDS011;46102;39.012;-7.064;2022-09-09T06:02:52;6.57;;;3.45;;
60239;SDS011;46102;39.012;-7.064;2022-09-09T06:04:54;8.90;;;4.13;;
60239;SDS011;46102;39.012;-7.064;2022-09-09T06:06:58;10.68;;;4.50;;
60239;SDS011;46102;39.012;-7.064;2022-09-09T06:08:59;9.82;;;5.13;;
60239;SDS011;46102;39.012;-7.064;2022-09-09T06:11:11;8.48;;;4.43;;
60239;SDS011;46102;39.012;-7.064;2022-09-09T06:13:12;7.20;;;3.72;;
60239;SDS011;46102;39.012;-7.064;2022-09-09T06:15:13;7.55;;;4.03;;
60239;SDS011;46102;39.012;-7.064;2022-09-09T06:17:14;8.80;;;4.28;;
60239;SDS011;46102;39.012;-7.064;2022-09-09T06:19:15;6.93;;;5.53;;
60239;SDS011;46102;39.012;-7.064;2022-09-09T06:21:19;10.10;;;5.05;;
60239;SDS011;46102;39.012;-7.064;2022-09-09T06:23:22;6.20;;;4.88;;
60239;SDS011;46102;39.012;-7.064;2022-09-09T06:25:23;14.32;;;5.40;;
60239;SDS011;46102;39.012;-7.064;2022-09-09T06:27:24;8.30;;;4.63;;
60239;SDS011;46102;39.012;-7.064;2022-09-09T06:29:28;7.95;;;4.93;;
60239;SDS011;46102;39.012;-7.064;2022-09-09T06:31:30;4.97;;;4.47;;
60239;SDS011;46102;39.012;-7.064;2022-09-09T06:33:40;11.77;;;4.70;;
60239;SDS011;46102;39.012;-7.064;2022-09-09T06:35:42;7.57;;;5.03;;
60239;SDS011;46102;39.012;-7.064;2022-09-09T06:37:52;10.55;;;4.95;;
60239;SDS011;46102;39.012;-7.064;2022-09-09T06:39:53;7.20;;;4.43;;
60239;SDS011;46102;39.012;-7.064;2022-09-09T06:41:55;7.28;;;4.68;;
60239;SDS011;46102;39.012;-7.064;2022-09-09T06:44:22;7.35;;;4.53;;
60239;SDS011;46102;39.012;-7.064;2022-09-09T06:46:25;12.57;;;5.30;;
60239;SDS011;46102;39.012;-7.064;2022-09-09T06:48:28;10.07;;;4.63;;
60239;SDS011;46102;39.012;-7.064;2022-09-09T06:50:29;7.22;;;4.40;;
60239;SDS011;46102;39.012;-7.064;2022-09-09T06:52:30;5.28;;;4.47;;
60239;SDS011;46102;39.012;-7.064;2022-09-09T06:54:33;6.38;;;4.65;;
60239;SDS011;46102;39.012;-7.064;2022-09-09T06:56:37;10.18;;;4.00;;
60239;SDS011;46102;39.012;-7.064;2022-09-09T06:58:51;7.83;;;4.30;;
60239;SDS011;46102;39.012;-7.064;2022-09-09T07:01:02;5.55;;;3.88;;
60239;SDS011;46102;39.012;-7.064;2022-09-09T07:03:04;8.07;;;3.70;;
60239;SDS011;46102;39.012;-7.064;2022-09-09T07:05:06;8.70;;;4.20;;
60239;SDS011;46102;39.012;-7.064;2022-09-09T07:07:08;6.47;;;3.35;;
60239;SDS011;46102;39.012;-7.064;2022-09-09T07:09:13;7.18;;;3.70;;
60239;SDS011;46102;39.012;-7.064;2022-09-09T07:11:18;3.38;;;3.08;;
60239;SDS011;46102;39.012;-7.064;2022-09-09T07:13:26;4.78;;;3.10;;
60239;SDS011;46102;39.012;-7.064;2022-09-09T07:15:29;3.50;;;2.85;;
60239;SDS011;46102;39.012;-7.064;2022-09-09T07:17:30;5.03;;;3.28;;
60239;SDS011;46102;39.012;-7.064;2022-09-09T07:19:33;7.65;;;3.25;;
60239;SDS011;46102;39.012;-7.064;2022-09-09T07:21:36;6.78;;;3.38;;
60239;SDS011;46102;39.012;-7.064;2022-09-09T07:23:37;6.47;;;2.28;;
60239;SDS011;46102;39.012;-7.064;2022-09-09T07:25:44;4.00;;;2.55;;
60239;SDS011;46102;39.012;-7.064;2022-09-09T07:27:46;2.90;;;2.40;;
60239;SDS011;46102;39.012;-7.064;2022-09-09T07:29:47;4.93;;;1.90;;
60239;SDS011;46102;39.012;-7.064;2022-09-09T07:31:49;6.57;;;2.88;;
60239;SDS011;46102;39.012;-7.064;2022-09-09T07:33:54;4.90;;;2.53;;
60239;SDS011;46102;39.012;-7.064;2022-09-09T07:36:01;3.47;;;2.72;;
60239;SDS011;46102;39.012;-7.064;2022-09-09T07:38:04;4.30;;;2.38;;
60239;SDS011;46102;39.012;-7.064;2022-09-09T07:40:07;3.28;;;2.67;;
60239;SDS011;46102;39.012;-7.064;2022-09-09T07:42:08;2.53;;;1.95;;
60239;SDS011;46102;39.012;-7.064;2022-09-09T07:44:13;2.03;;;1.83;;
60239;SDS011;46102;39.012;-7.064;2022-09-09T07:46:18;2.25;;;2.15;;
60239;SDS011;46102;39.012;-7.064;2022-09-09T07:48:20;5.65;;;2.50;;
60239;SDS011;46102;39.012;-7.064;2022-09-09T07:50:21;2.08;;;1.90;;
60239;SDS011;46102;39.012;-7.064;2022-09-09T07:52:22;3.25;;;2.10;;
60239;SDS011;46102;39.012;-7.064;2022-09-09T07:54:27;2.90;;;1.60;;
60239;SDS011;46102;39.012;-7.064;2022-09-09T07:56:29;2.28;;;1.67;;
60239;SDS011;46102;39.012;-7.064;2022-09-09T07:58:31;3.63;;;2.03;;
60239;SDS011;46102;39.012;-7.064;2022-09-09T08:00:31;2.97;;;1.52;;
60239;SDS011;46102;39.012;-7.064;2022-09-09T08:02:34;3.13;;;1.38;;
60239;SDS011;46102;39.012;-7.064;2022-09-09T08:04:34;2.08;;;1.73;;
60239;SDS011;46102;39.012;-7.064;2022-09-09T08:06:40;2.92;;;1.73;;
60239;SDS011;46102;39.012;-7.064;2022-09-09T08:08:43;2.40;;;2.03;;
60239;SDS011;46102;39.012;-7.064;2022-09-09T08:10:45;2.05;;;1.90;;
60239;SDS011;46102;39.012;-7.064;2022-09-09T08:12:46;1.80;;;1.70;;
60239;SDS011;46102;39.012;-7.064;2022-09-09T08:14:49;2.07;;;1.50;;
60239;SDS011;46102;39.012;-7.064;2022-09-09T08:16:51;1.75;;;1.30;;
60239;SDS011;46102;39.012;-7.064;2022-09-09T08:18:56;1.45;;;1.15;;
60239;SDS011;46102;39.012;-7.064;2022-09-09T08:20:58;1.52;;;1.00;;
60239;SDS011;46102;39.012;-7.064;2022-09-09T08:23:09;4.03;;;1.50;;
60239;SDS011;46102;39.012;-7.064;2022-09-09T08:25:10;4.50;;;1.95;;
60239;SDS011;46102;39.012;-7.064;2022-09-09T08:27:12;1.67;;;1.58;;
60239;SDS011;46102;39.012;-7.064;2022-09-09T08:29:14;2.00;;;1.70;;
60239;SDS011;46102;39.012;-7.064;2022-09-09T08:31:18;2.92;;;2.08;;
60239;SDS011;46102;39.012;-7.064;2022-09-09T08:33:22;2.10;;;1.60;;
60239;SDS011;46102;39.012;-7.064;2022-09-09T08:35:23;3.00;;;1.67;;
60239;SDS011;46102;39.012;-7.064;2022-09-09T08:37:24;4.05;;;2.08;;
60239;SDS011;46102;39.012;-7.064;2022-09-09T08:39:26;3.90;;;1.90;;
60239;SDS011;46102;39.012;-7.064;2022-09-09T08:43:50;3.95;;;1.70;;
60239;SDS011;46102;39.012;-7.064;2022-09-09T08:46:12;3.80;;;1.55;;
60239;SDS011;46102;39.012;-7.064;2022-09-09T08:57:23;1.02;;;1.02;;
60239;SDS011;46102;39.012;-7.064;2022-09-09T08:59:29;3.80;;;1.15;;
60239;SDS011;46102;39.012;-7.064;2022-09-09T09:08:43;1.33;;;1.23;;
60239;SDS011;46102;39.012;-7.064;2022-09-09T09:10:58;0.95;;;0.88;;
60239;SDS011;46102;39.012;-7.064;2022-09-09T09:13:01;2.17;;;1.67;;
60239;SDS011;46102;39.012;-7.064;2022-09-09T09:15:05;1.25;;;1.15;;
60239;SDS011;46102;39.012;-7.064;2022-09-09T09:17:19;4.25;;;1.05;;
60239;SDS011;46102;39.012;-7.064;2022-09-09T09:19:24;3.75;;;1.38;;
60239;SDS011;46102;39.012;-7.064;2022-09-09T09:23:43;1.20;;;1.10;;
60239;SDS011;46102;39.012;-7.064;2022-09-09T09:25:55;0.90;;;0.90;;
60239;SDS011;46102;39.012;-7.064;2022-09-09T09:32:22;0.50;;;0.50;;
60239;SDS011;46102;39.012;-7.064;2022-09-09T09:34:23;1.02;;;0.70;;
60239;SDS011;46102;39.012;-7.064;2022-09-09T09:36:52;0.50;;;0.50;;
60239;SDS011;46102;39.012;-7.064;2022-09-09T09:38:57;0.60;;;0.60;;
60239;SDS011;46102;39.012;-7.064;2022-09-09T09:41:02;0.60;;;0.60;;
60239;SDS011;46102;39.012;-7.064;2022-09-09T09:43:04;6.88;;;0.47;;
60239;SDS011;46102;39.012;-7.064;2022-09-09T09:47:33;1.00;;;0.70;;
60239;SDS011;46102;39.012;-7.064;2022-09-09T09:49:52;0.50;;;0.50;;
60239;SDS011;46102;39.012;-7.064;2022-09-09T09:51:54;4.72;;;1.13;;
60239;SDS011;46102;39.012;-7.064;2022-09-09T09:54:07;0.70;;;0.70;;
60239;SDS011;46102;39.012;-7.064;2022-09-09T09:56:27;1.33;;;0.60;;
60239;SDS011;46102;39.012;-7.064;2022-09-09T09:58:32;3.58;;;0.77;;
60239;SDS011;46102;39.012;-7.064;2022-09-09T10:00:49;1.15;;;0.80;;
60239;SDS011;46102;39.012;-7.064;2022-09-09T10:02:53;1.00;;;0.93;;
60239;SDS011;46102;39.012;-7.064;2022-09-09T10:05:05;5.78;;;1.10;;
60239;SDS011;46102;39.012;-7.064;2022-09-09T10:07:20;0.70;;;0.60;;
60239;SDS011;46102;39.012;-7.064;2022-09-09T10:11:35;1.38;;;0.77;;
60239;SDS011;46102;39.012;-7.064;2022-09-09T10:16:47;3.42;;;1.10;;
60239;SDS011;46102;39.012;-7.064;2022-09-09T10:30:36;0.47;;;0.47;;
60239;SDS011;46102;39.012;-7.064;2022-09-09T10:33:10;0.85;;;0.70;;
60239;SDS011;46102;39.012;-7.064;2022-09-09T10:39:44;0.90;;;0.77;;
60239;SDS011;46102;39.012;-7.064;2022-09-09T10:41:51;0.88;;;0.55;;
60239;SDS011;46102;39.012;-7.064;2022-09-09T10:55:51;0.68;;;0.68;;
60239;SDS011;46102;39.012;-7.064;2022-09-09T10:57:55;4.30;;;0.70;;
60239;SDS011;46102;39.012;-7.064;2022-09-09T10:59:59;0.50;;;0.50;;
60239;SDS011;46102;39.012;-7.064;2022-09-09T11:04:30;1.40;;;0.97;;
60239;SDS011;46102;39.012;-7.064;2022-09-09T11:06:37;0.45;;;0.35;;
60239;SDS011;46102;39.012;-7.064;2022-09-09T11:08:42;1.02;;;0.90;;
60239;SDS011;46102;39.012;-7.064;2022-09-09T11:13:04;1.15;;;0.75;;
60239;SDS011;46102;39.012;-7.064;2022-09-09T11:17:33;2.08;;;0.75;;
60239;SDS011;46102;39.012;-7.064;2022-09-09T11:19:42;0.80;;;0.80;;
60239;SDS011;46102;39.012;-7.064;2022-09-09T11:21:45;1.52;;;0.73;;
60239;SDS011;46102;39.012;-7.064;2022-09-09T11:23:49;0.95;;;0.60;;
60239;SDS011;46102;39.012;-7.064;2022-09-09T11:25:57;3.72;;;0.70;;
60239;SDS011;46102;39.012;-7.064;2022-09-09T11:30:22;2.35;;;0.82;;
60239;SDS011;46102;39.012;-7.064;2022-09-09T11:35:00;0.85;;;0.70;;
60239;SDS011;46102;39.012;-7.064;2022-09-09T11:37:24;0.85;;;0.73;;
60239;SDS011;46102;39.012;-7.064;2022-09-09T11:39:44;0.93;;;0.93;;
60239;SDS011;46102;39.012;-7.064;2022-09-09T11:41:55;0.93;;;0.93;;
60239;SDS011;46102;39.012;-7.064;2022-09-09T11:44:09;1.33;;;0.90;;
60239;SDS011;46102;39.012;-7.064;2022-09-09T11:46:13;1.40;;;1.20;;
60239;SDS011;46102;39.012;-7.064;2022-09-09T11:50:45;1.75;;;0.65;;
60239;SDS011;46102;39.012;-7.064;2022-09-09T11:52:46;1.48;;;0.70;;
60239;SDS011;46102;39.012;-7.064;2022-09-09T11:54:49;2.13;;;0.80;;
60239;SDS011;46102;39.012;-7.064;2022-09-09T11:56:50;0.63;;;0.63;;
60239;SDS011;46102;39.012;-7.064;2022-09-09T11:58:55;1.13;;;0.50;;
60239;SDS011;46102;39.012;-7.064;2022-09-09T12:01:13;0.75;;;0.60;;
60239;SDS011;46102;39.012;-7.064;2022-09-09T12:05:44;0.57;;;0.57;;
60239;SDS011;46102;39.012;-7.064;2022-09-09T12:07:54;1.17;;;0.70;;
60239;SDS011;46102;39.012;-7.064;2022-09-09T12:09:59;4.78;;;0.43;;
60239;SDS011;46102;39.012;-7.064;2022-09-09T12:12:22;0.68;;;0.35;;
60239;SDS011;46102;39.012;-7.064;2022-09-09T12:14:35;1.85;;;0.55;;
60239;SDS011;46102;39.012;-7.064;2022-09-09T12:16:37;0.52;;;0.52;;
60239;SDS011;46102;39.012;-7.064;2022-09-09T12:18:38;0.38;;;0.38;;
60239;SDS011;46102;39.012;-7.064;2022-09-09T12:20:40;2.25;;;0.65;;
60239;SDS011;46102;39.012;-7.064;2022-09-09T12:23:22;0.30;;;0.30;;
60239;SDS011;46102;39.012;-7.064;2022-09-09T12:28:17;0.35;;;0.35;;
60239;SDS011;46102;39.012;-7.064;2022-09-09T12:30:21;0.30;;;0.30;;
60239;SDS011;46102;39.012;-7.064;2022-09-09T12:32:24;0.22;;;0.22;;
60239;SDS011;46102;39.012;-7.064;2022-09-09T12:34:32;0.20;;;0.20;;
60239;SDS011;46102;39.012;-7.064;2022-09-09T12:36:38;0.25;;;0.22;;
60239;SDS011;46102;39.012;-7.064;2022-09-09T12:38:42;0.90;;;0.30;;
60239;SDS011;46102;39.012;-7.064;2022-09-09T12:40:43;0.80;;;0.30;;
60239;SDS011;46102;39.012;-7.064;2022-09-09T12:42:55;0.55;;;0.20;;
60239;SDS011;46102;39.012;-7.064;2022-09-09T12:44:58;1.02;;;0.30;;
60239;SDS011;46102;39.012;-7.064;2022-09-09T12:47:01;0.85;;;0.32;;
60239;SDS011;46102;39.012;-7.064;2022-09-09T12:49:04;0.22;;;0.22;;
60239;SDS011;46102;39.012;-7.064;2022-09-09T12:51:16;0.70;;;0.50;;
60239;SDS011;46102;39.012;-7.064;2022-09-09T12:53:25;0.30;;;0.30;;
60239;SDS011;46102;39.012;-7.064;2022-09-09T12:55:30;0.30;;;0.30;;
60239;SDS011;46102;39.012;-7.064;2022-09-09T12:57:34;0.75;;;0.30;;
60239;SDS011;46102;39.012;-7.064;2022-09-09T13:01:42;0.20;;;0.20;;
60239;SDS011;46102;39.012;-7.064;2022-09-09T13:03:43;0.17;;;0.17;;
60239;SDS011;46102;39.012;-7.064;2022-09-09T13:05:48;0.40;;;0.35;;
60239;SDS011;46102;39.012;-7.064;2022-09-09T13:07:49;1.30;;;0.30;;
60239;SDS011;46102;39.012;-7.064;2022-09-09T13:09:50;0.28;;;0.28;;
60239;SDS011;46102;39.012;-7.064;2022-09-09T13:11:52;0.55;;;0.10;;
60239;SDS011;46102;39.012;-7.064;2022-09-09T13:13:57;1.55;;;0.20;;
60239;SDS011;46102;39.012;-7.064;2022-09-09T13:15:59;1.17;;;0.30;;
60239;SDS011;46102;39.012;-7.064;2022-09-09T13:18:02;0.70;;;0.20;;
60239;SDS011;46102;39.012;-7.064;2022-09-09T13:20:16;0.40;;;0.20;;
60239;SDS011;46102;39.012;-7.064;2022-09-09T13:24:34;0.65;;;0.30;;
60239;SDS011;46102;39.012;-7.064;2022-09-09T13:26:35;0.68;;;0.68;;
60239;SDS011;46102;39.012;-7.064;2022-09-09T13:28:37;0.30;;;0.30;;
60239;SDS011;46102;39.012;-7.064;2022-09-09T13:30:38;0.20;;;0.20;;
60239;SDS011;46102;39.012;-7.064;2022-09-09T13:32:40;0.20;;;0.20;;
60239;SDS011;46102;39.012;-7.064;2022-09-09T13:34:50;0.28;;;0.20;;
60239;SDS011;46102;39.012;-7.064;2022-09-09T13:36:51;1.13;;;0.30;;
60239;SDS011;46102;39.012;-7.064;2022-09-09T13:38:56;1.55;;;0.20;;
60239;SDS011;46102;39.012;-7.064;2022-09-09T13:41:00;1.50;;;1.40;;
60239;SDS011;46102;39.012;-7.064;2022-09-09T13:43:04;1.33;;;1.23;;
60239;SDS011;46102;39.012;-7.064;2022-09-09T13:45:05;0.50;;;0.50;;
60239;SDS011;46102;39.012;-7.064;2022-09-09T13:47:18;0.73;;;0.28;;
60239;SDS011;46102;39.012;-7.064;2022-09-09T13:49:21;2.30;;;0.30;;
60239;SDS011;46102;39.012;-7.064;2022-09-09T13:51:28;1.13;;;0.28;;
60239;SDS011;46102;39.012;-7.064;2022-09-09T13:53:34;0.20;;;0.20;;
60239;SDS011;46102;39.012;-7.064;2022-09-09T13:55:36;0.63;;;0.30;;
60239;SDS011;46102;39.012;-7.064;2022-09-09T13:57:36;0.55;;;0.50;;
60239;SDS011;46102;39.012;-7.064;2022-09-09T13:59:37;0.43;;;0.40;;
60239;SDS011;46102;39.012;-7.064;2022-09-09T14:01:38;1.95;;;0.30;;
60239;SDS011;46102;39.012;-7.064;2022-09-09T14:03:38;8.40;;;0.30;;
60239;SDS011;46102;39.012;-7.064;2022-09-09T14:05:39;0.95;;;0.30;;
60239;SDS011;46102;39.012;-7.064;2022-09-09T14:07:40;0.20;;;0.15;;
60239;SDS011;46102;39.012;-7.064;2022-09-09T14:09:42;0.30;;;0.30;;
60239;SDS011;46102;39.012;-7.064;2022-09-09T14:11:43;0.50;;;0.50;;
60239;SDS011;46102;39.012;-7.064;2022-09-09T14:13:46;0.50;;;0.40;;
60239;SDS011;46102;39.012;-7.064;2022-09-09T14:15:47;0.40;;;0.40;;
60239;SDS011;46102;39.012;-7.064;2022-09-09T14:17:48;2.10;;;0.52;;
60239;SDS011;46102;39.012;-7.064;2022-09-09T14:19:49;0.60;;;0.57;;
60239;SDS011;46102;39.012;-7.064;2022-09-09T14:21:50;0.65;;;0.30;;
60239;SDS011;46102;39.012;-7.064;2022-09-09T14:23:51;0.70;;;0.50;;
60239;SDS011;46102;39.012;-7.064;2022-09-09T14:25:55;0.57;;;0.40;;
60239;SDS011;46102;39.012;-7.064;2022-09-09T14:27:56;2.20;;;0.55;;